sensor_id;sensor_type;location;lat;lon;timestamp;pressure;altitude;pressure_sealevel;temperature;humidity
11011;BME280;5558;42.702;23.178;2022-10-30T00:00:22;94453.38;;;9.82;100.00
11011;BME280;5558;42.702;23.178;2022-10-30T00:02:48;94443.75;;;9.76;100.00
11011;BME280;5558;42.702;23.178;2022-10-30T00:05:15;94405.75;;;9.49;100.00
11011;BME280;5558;42.702;23.178;2022-10-30T00:07:43;94432.69;;;9.79;100.00
11011;BME280;5558;42.702;23.178;2022-10-30T00:10:09;94431.91;;;9.79;100.00
11011;BME280;5558;42.702;23.178;2022-10-30T00:12:36;94428.94;;;9.75;100.00
11011;BME280;5558;42.702;23.178;2022-10-30T00:15:05;94434.13;;;9.70;100.00
11011;BME280;5558;42.702;23.178;2022-10-30T00:17:32;94439.97;;;9.72;100.00
11011;BME280;5558;42.702;23.178;2022-10-30T00:19:59;94438.38;;;9.71;100.00
11011;BME280;5558;42.702;23.178;2022-10-30T00:22:26;94446.31;;;9.71;100.00
11011;BME280;5558;42.702;23.178;2022-10-30T00:24:52;94447.59;;;9.69;100.00
11011;BME280;5558;42.702;23.178;2022-10-30T00:27:19;94442.34;;;9.57;100.00
11011;BME280;5558;42.702;23.178;2022-10-30T00:29:46;94448.22;;;9.76;100.00
11011;BME280;5558;42.702;23.178;2022-10-30T00:32:14;94443.34;;;9.84;100.00
11011;BME280;5558;42.702;23.178;2022-10-30T00:34:41;94438.84;;;9.85;100.00
11011;BME280;5558;42.702;23.178;2022-10-30T00:37:07;94431.72;;;9.85;100.00
11011;BME280;5558;42.702;23.178;2022-10-30T00:39:34;94433.16;;;9.76;100.00
11011;BME280;5558;42.702;23.178;2022-10-30T00:42:01;94435.56;;;9.78;100.00
11011;BME280;5558;42.702;23.178;2022-10-30T00:44:36;94414.25;;;9.68;100.00
11011;BME280;5558;42.702;23.178;2022-10-30T00:47:06;94431.56;;;9.75;100.00
11011;BME280;5558;42.702;23.178;2022-10-30T00:49:52;94426.03;;;9.60;100.00
11011;BME280;5558;42.702;23.178;2022-10-30T00:52:23;94431.50;;;9.70;100.00
11011;BME280;5558;42.702;23.178;2022-10-30T00:54:51;94418.59;;;9.74;100.00
11011;BME280;5558;42.702;23.178;2022-10-30T00:57:19;94414.75;;;9.81;100.00
11011;BME280;5558;42.702;23.178;2022-10-30T00:59:46;94415.31;;;9.83;100.00
11011;BME280;5558;42.702;23.178;2022-10-30T01:02:13;94406.16;;;9.91;100.00
11011;BME280;5558;42.702;23.178;2022-10-30T01:04:42;94417.03;;;9.95;100.00
11011;BME280;5558;42.702;23.178;2022-10-30T01:07:12;94415.47;;;9.94;100.00
11011;BME280;5558;42.702;23.178;2022-10-30T01:09:40;94406.16;;;9.91;100.00
11011;BME280;5558;42.702;23.178;2022-10-30T01:12:08;94409.28;;;9.88;100.00
11011;BME280;5558;42.702;23.178;2022-10-30T01:14:37;94413.47;;;9.84;100.00
11011;BME280;5558;42.702;23.178;2022-10-30T01:17:22;94387.97;;;9.78;100.00
11011;BME280;5558;42.702;23.178;2022-10-30T01:20:05;94393.75;;;9.75;100.00
11011;BME280;5558;42.702;23.178;2022-10-30T01:22:43;94395.50;;;9.69;100.00
11011;BME280;5558;42.702;23.178;2022-10-30T01:25:28;94385.09;;;9.63;100.00
11011;BME280;5558;42.702;23.178;2022-10-30T01:28:12;94399.28;;;9.57;100.00
11011;BME280;5558;42.702;23.178;2022-10-30T01:30:56;94389.41;;;9.52;100.00
11011;BME280;5558;42.702;23.178;2022-10-30T01:33:34;94390.19;;;9.20;100.00
11011;BME280;5558;42.702;23.178;2022-10-30T01:36:08;94388.69;;;9.40;100.00
11011;BME280;5558;42.702;23.178;2022-10-30T01:38:43;94393.84;;;9.47;100.00
11011;BME280;5558;42.702;23.178;2022-10-30T01:41:12;94393.94;;;9.52;100.00
11011;BME280;5558;42.702;23.178;2022-10-30T01:43:40;94391.28;;;9.52;100.00
11011;BME280;5558;42.702;23.178;2022-10-30T01:46:19;94388.50;;;9.30;100.00
11011;BME280;5558;42.702;23.178;2022-10-30T01:49:00;94382.88;;;9.38;100.00
11011;BME280;5558;42.702;23.178;2022-10-30T01:51:44;94389.81;;;9.44;100.00
11011;BME280;5558;42.702;23.178;2022-10-30T01:54:22;94389.97;;;9.54;100.00
11011;BME280;5558;42.702;23.178;2022-10-30T01:57:01;94390.31;;;9.58;100.00
11011;BME280;5558;42.702;23.178;2022-10-30T01:59:33;94379.16;;;9.56;100.00
11011;BME280;5558;42.702;23.178;2022-10-30T02:02:02;94382.13;;;9.59;100.00
11011;BME280;5558;42.702;23.178;2022-10-30T02:04:29;94383.97;;;9.42;100.00
11011;BME280;5558;42.702;23.178;2022-10-30T02:06:58;94393.34;;;9.50;100.00
11011;BME280;5558;42.702;23.178;2022-10-30T02:09:25;94375.97;;;9.54;100.00
11011;BME280;5558;42.702;23.178;2022-10-30T02:11:52;94378.00;;;9.47;100.00
11011;BME280;5558;42.702;23.178;2022-10-30T02:14:23;94367.00;;;9.55;100.00
11011;BME280;5558;42.702;23.178;2022-10-30T02:16:52;94375.50;;;9.57;100.00
11011;BME280;5558;42.702;23.178;2022-10-30T02:19:20;94376.22;;;9.69;100.00
11011;BME280;5558;42.702;23.178;2022-10-30T02:21:48;94369.97;;;9.75;100.00
11011;BME280;5558;42.702;23.178;2022-10-30T02:24:15;94368.28;;;9.52;100.00
11011;BME280;5558;42.702;23.178;2022-10-30T02:26:41;94368.03;;;9.54;100.00
11011;BME280;5558;42.702;23.178;2022-10-30T02:29:08;94360.66;;;9.23;100.00
11011;BME280;5558;42.702;23.178;2022-10-30T02:31:35;94371.81;;;9.41;100.00
11011;BME280;5558;42.702;23.178;2022-10-30T02:34:03;94357.31;;;9.44;100.00
11011;BME280;5558;42.702;23.178;2022-10-30T02:36:30;94366.19;;;9.38;100.00
11011;BME280;5558;42.702;23.178;2022-10-30T02:38:58;94365.78;;;9.29;100.00
11011;BME280;5558;42.702;23.178;2022-10-30T02:41:25;94360.81;;;9.16;100.00
11011;BME280;5558;42.702;23.178;2022-10-30T02:43:52;94367.44;;;9.02;100.00
11011;BME280;5558;42.702;23.178;2022-10-30T02:46:19;94374.31;;;9.03;100.00
11011;BME280;5558;42.702;23.178;2022-10-30T02:48:46;94368.31;;;8.91;100.00
11011;BME280;5558;42.702;23.178;2022-10-30T02:51:13;94370.72;;;8.81;100.00
11011;BME280;5558;42.702;23.178;2022-10-30T02:53:40;94382.31;;;8.80;100.00
11011;BME280;5558;42.702;23.178;2022-10-30T02:56:10;94379.13;;;8.78;100.00
11011;BME280;5558;42.702;23.178;2022-10-30T02:58:37;94380.59;;;8.86;100.00
11011;BME280;5558;42.702;23.178;2022-10-30T03:01:05;94374.50;;;8.85;100.00
11011;BME280;5558;42.702;23.178;2022-10-30T03:03:32;94381.44;;;8.75;100.00
11011;BME280;5558;42.702;23.178;2022-10-30T03:05:59;94380.50;;;8.81;100.00
11011;BME280;5558;42.702;23.178;2022-10-30T03:08:27;94387.56;;;8.92;100.00
11011;BME280;5558;42.702;23.178;2022-10-30T03:10:58;94381.03;;;8.94;100.00
11011;BME280;5558;42.702;23.178;2022-10-30T03:13:28;94383.13;;;8.81;100.00
11011;BME280;5558;42.702;23.178;2022-10-30T03:15:59;94384.03;;;8.86;100.00
11011;BME280;5558;42.702;23.178;2022-10-30T03:18:26;94383.81;;;8.76;100.00
11011;BME280;5558;42.702;23.178;2022-10-30T03:20:55;94386.72;;;9.03;100.00
11011;BME280;5558;42.702;23.178;2022-10-30T03:23:22;94385.69;;;9.20;100.00
11011;BME280;5558;42.702;23.178;2022-10-30T03:25:51;94377.25;;;9.18;100.00
11011;BME280;5558;42.702;23.178;2022-10-30T03:28:18;94366.03;;;9.11;100.00
11011;BME280;5558;42.702;23.178;2022-10-30T03:30:46;94384.75;;;9.26;100.00
11011;BME280;5558;42.702;23.178;2022-10-30T03:33:13;94387.16;;;9.11;100.00
11011;BME280;5558;42.702;23.178;2022-10-30T03:35:42;94383.94;;;9.09;100.00
11011;BME280;5558;42.702;23.178;2022-10-30T03:38:09;94381.19;;;9.04;100.00
11011;BME280;5558;42.702;23.178;2022-10-30T03:40:35;94389.69;;;9.06;100.00
11011;BME280;5558;42.702;23.178;2022-10-30T03:43:02;94388.66;;;8.39;100.00
11011;BME280;5558;42.702;23.178;2022-10-30T03:45:30;94389.63;;;8.61;100.00
11011;BME280;5558;42.702;23.178;2022-10-30T03:47:59;94389.81;;;8.72;100.00
11011;BME280;5558;42.702;23.178;2022-10-30T03:50:25;94358.38;;;8.42;100.00
11011;BME280;5558;42.702;23.178;2022-10-30T03:52:52;94390.78;;;8.66;100.00
11011;BME280;5558;42.702;23.178;2022-10-30T03:55:19;94391.53;;;8.78;100.00
11011;BME280;5558;42.702;23.178;2022-10-30T03:57:46;94384.50;;;8.83;100.00
11011;BME280;5558;42.702;23.178;2022-10-30T04:00:13;94384.72;;;8.82;100.00
11011;BME280;5558;42.702;23.178;2022-10-30T04:02:44;94370.28;;;8.84;100.00
11011;BME280;5558;42.702;23.178;2022-10-30T04:05:12;94378.97;;;8.85;100.00
11011;BME280;5558;42.702;23.178;2022-10-30T04:07:39;94369.13;;;8.80;100.00
11011;BME280;5558;42.702;23.178;2022-10-30T04:10:07;94365.78;;;8.85;100.00
11011;BME280;5558;42.702;23.178;2022-10-30T04:12:34;94367.88;;;8.83;100.00
11011;BME280;5558;42.702;23.178;2022-10-30T04:15:00;94369.50;;;8.72;100.00
11011;BME280;5558;42.702;23.178;2022-10-30T04:17:27;94367.78;;;8.78;100.00
11011;BME280;5558;42.702;23.178;2022-10-30T04:19:54;94368.56;;;8.78;100.00
11011;BME280;5558;42.702;23.178;2022-10-30T04:22:22;94365.16;;;8.66;100.00
11011;BME280;5558;42.702;23.178;2022-10-30T04:24:48;94369.50;;;8.72;100.00
11011;BME280;5558;42.702;23.178;2022-10-30T04:27:15;94372.44;;;8.59;100.00
11011;BME280;5558;42.702;23.178;2022-10-30T04:29:42;94365.88;;;8.61;100.00
11011;BME280;5558;42.702;23.178;2022-10-30T04:32:09;94371.16;;;8.61;100.00
11011;BME280;5558;42.702;23.178;2022-10-30T04:34:35;94378.50;;;8.59;100.00
11011;BME280;5558;42.702;23.178;2022-10-30T04:37:03;94378.00;;;8.74;100.00
11011;BME280;5558;42.702;23.178;2022-10-30T04:39:31;94375.69;;;8.78;100.00
11011;BME280;5558;42.702;23.178;2022-10-30T04:41:58;94370.09;;;8.74;100.00
11011;BME280;5558;42.702;23.178;2022-10-30T04:44:25;94372.59;;;8.81;100.00
11011;BME280;5558;42.702;23.178;2022-10-30T04:46:52;94375.06;;;8.87;100.00
11011;BME280;5558;42.702;23.178;2022-10-30T04:49:18;94378.84;;;8.91;100.00
11011;BME280;5558;42.702;23.178;2022-10-30T04:51:45;94367.34;;;8.97;100.00
11011;BME280;5558;42.702;23.178;2022-10-30T04:54:12;94367.75;;;9.06;100.00
11011;BME280;5558;42.702;23.178;2022-10-30T04:56:40;94378.53;;;8.88;100.00
11011;BME280;5558;42.702;23.178;2022-10-30T04:59:06;94371.47;;;8.93;100.00
11011;BME280;5558;42.702;23.178;2022-10-30T05:01:33;94346.78;;;8.71;100.00
11011;BME280;5558;42.702;23.178;2022-10-30T05:04:00;94379.31;;;8.88;100.00
11011;BME280;5558;42.702;23.178;2022-10-30T05:06:28;94378.94;;;8.96;100.00
11011;BME280;5558;42.702;23.178;2022-10-30T05:08:55;94379.56;;;9.15;100.00
11011;BME280;5558;42.702;23.178;2022-10-30T05:11:22;94390.53;;;9.40;100.00
11011;BME280;5558;42.702;23.178;2022-10-30T05:13:50;94386.59;;;9.59;100.00
11011;BME280;5558;42.702;23.178;2022-10-30T05:16:17;94386.38;;;9.77;100.00
11011;BME280;5558;42.702;23.178;2022-10-30T05:18:44;94385.66;;;9.81;100.00
11011;BME280;5558;42.702;23.178;2022-10-30T05:21:10;94383.78;;;10.15;100.00
11011;BME280;5558;42.702;23.178;2022-10-30T05:23:37;94390.94;;;10.53;100.00
11011;BME280;5558;42.702;23.178;2022-10-30T05:26:04;94387.47;;;10.95;100.00
11011;BME280;5558;42.702;23.178;2022-10-30T05:28:31;94392.47;;;11.45;100.00
11011;BME280;5558;42.702;23.178;2022-10-30T05:30:59;94390.06;;;12.02;100.00
11011;BME280;5558;42.702;23.178;2022-10-30T05:33:26;94383.78;;;12.65;95.76
11011;BME280;5558;42.702;23.178;2022-10-30T05:35:52;94397.06;;;13.52;89.19
11011;BME280;5558;42.702;23.178;2022-10-30T05:38:19;94397.38;;;14.15;83.09
11011;BME280;5558;42.702;23.178;2022-10-30T05:40:46;94396.22;;;14.72;75.16
11011;BME280;5558;42.702;23.178;2022-10-30T05:43:12;94390.13;;;15.25;71.99
11011;BME280;5558;42.702;23.178;2022-10-30T05:45:39;94391.91;;;15.83;67.90
11011;BME280;5558;42.702;23.178;2022-10-30T05:48:08;94389.34;;;16.35;64.03
11011;BME280;5558;42.702;23.178;2022-10-30T05:50:34;94386.16;;;16.62;62.37
11011;BME280;5558;42.702;23.178;2022-10-30T05:53:03;94394.69;;;17.11;61.39
11011;BME280;5558;42.702;23.178;2022-10-30T05:55:30;94391.06;;;17.63;58.97
11011;BME280;5558;42.702;23.178;2022-10-30T05:57:57;94381.44;;;17.99;56.56
11011;BME280;5558;42.702;23.178;2022-10-30T06:00:25;94389.34;;;18.41;54.74
11011;BME280;5558;42.702;23.178;2022-10-30T06:02:51;94385.19;;;18.30;55.92
11011;BME280;5558;42.702;23.178;2022-10-30T06:05:19;94388.91;;;18.93;53.33
11011;BME280;5558;42.702;23.178;2022-10-30T06:07:46;94387.69;;;19.26;52.25
11011;BME280;5558;42.702;23.178;2022-10-30T06:10:13;94392.84;;;19.50;51.27
11011;BME280;5558;42.702;23.178;2022-10-30T06:12:40;94386.94;;;19.75;50.38
11011;BME280;5558;42.702;23.178;2022-10-30T06:15:07;94388.81;;;20.10;50.32
11011;BME280;5558;42.702;23.178;2022-10-30T06:17:33;94379.03;;;20.36;49.78
11011;BME280;5558;42.702;23.178;2022-10-30T06:20:00;94378.78;;;20.02;50.45
11011;BME280;5558;42.702;23.178;2022-10-30T06:22:28;94383.81;;;18.78;54.86
11011;BME280;5558;42.702;23.178;2022-10-30T06:24:55;94376.84;;;18.50;55.59
11011;BME280;5558;42.702;23.178;2022-10-30T06:27:21;94385.63;;;18.96;54.07
11011;BME280;5558;42.702;23.178;2022-10-30T06:29:48;94381.16;;;19.32;53.04
11011;BME280;5558;42.702;23.178;2022-10-30T06:32:15;94383.81;;;19.19;53.09
11011;BME280;5558;42.702;23.178;2022-10-30T06:34:42;94390.75;;;18.66;54.99
11011;BME280;5558;42.702;23.178;2022-10-30T06:37:09;94393.00;;;18.45;54.67
11011;BME280;5558;42.702;23.178;2022-10-30T06:39:37;94394.53;;;18.33;55.76
11011;BME280;5558;42.702;23.178;2022-10-30T06:42:04;94384.53;;;18.84;54.29
11011;BME280;5558;42.702;23.178;2022-10-30T06:44:30;94392.84;;;18.55;55.18
11011;BME280;5558;42.702;23.178;2022-10-30T06:46:57;94384.88;;;17.86;57.23
11011;BME280;5558;42.702;23.178;2022-10-30T06:49:24;94400.53;;;16.94;62.61
11011;BME280;5558;42.702;23.178;2022-10-30T06:51:51;94404.47;;;15.82;68.67
11011;BME280;5558;42.702;23.178;2022-10-30T06:54:17;94399.47;;;15.22;73.23
11011;BME280;5558;42.702;23.178;2022-10-30T06:56:50;94400.16;;;14.84;76.98
11011;BME280;5558;42.702;23.178;2022-10-30T06:59:17;94393.31;;;14.58;80.71
11011;BME280;5558;42.702;23.178;2022-10-30T07:01:43;94395.22;;;14.17;82.88
11011;BME280;5558;42.702;23.178;2022-10-30T07:04:11;94400.84;;;13.86;85.02
11011;BME280;5558;42.702;23.178;2022-10-30T07:06:38;94406.41;;;13.64;88.58
11011;BME280;5558;42.702;23.178;2022-10-30T07:09:05;94403.72;;;13.34;91.97
11011;BME280;5558;42.702;23.178;2022-10-30T07:11:31;94405.50;;;13.13;94.54
11011;BME280;5558;42.702;23.178;2022-10-30T07:14:00;94398.56;;;13.02;97.14
11011;BME280;5558;42.702;23.178;2022-10-30T07:16:27;94390.34;;;13.04;97.85
11011;BME280;5558;42.702;23.178;2022-10-30T07:18:53;94388.91;;;12.86;99.19
11011;BME280;5558;42.702;23.178;2022-10-30T07:21:21;94394.53;;;12.95;99.57
11011;BME280;5558;42.702;23.178;2022-10-30T07:23:48;94386.94;;;12.67;99.85
11011;BME280;5558;42.702;23.178;2022-10-30T07:26:14;94383.19;;;12.53;100.00
11011;BME280;5558;42.702;23.178;2022-10-30T07:28:41;94381.53;;;12.47;100.00
11011;BME280;5558;42.702;23.178;2022-10-30T07:31:09;94374.97;;;12.54;100.00
11011;BME280;5558;42.702;23.178;2022-10-30T07:33:36;94379.09;;;12.87;100.00
11011;BME280;5558;42.702;23.178;2022-10-30T07:36:03;94380.00;;;13.17;100.00
11011;BME280;5558;42.702;23.178;2022-10-30T07:38:30;94384.53;;;13.17;100.00
11011;BME280;5558;42.702;23.178;2022-10-30T07:40:56;94380.53;;;13.24;100.00
11011;BME280;5558;42.702;23.178;2022-10-30T07:43:23;94382.94;;;13.31;100.00
11011;BME280;5558;42.702;23.178;2022-10-30T07:45:50;94370.47;;;13.36;100.00
11011;BME280;5558;42.702;23.178;2022-10-30T07:48:18;94366.78;;;13.48;100.00
11011;BME280;5558;42.702;23.178;2022-10-30T07:50:44;94356.69;;;13.65;100.00
11011;BME280;5558;42.702;23.178;2022-10-30T07:53:11;94374.22;;;13.71;100.00
11011;BME280;5558;42.702;23.178;2022-10-30T07:55:38;94362.78;;;13.75;99.67
11011;BME280;5558;42.702;23.178;2022-10-30T07:58:04;94370.25;;;13.78;100.00
11011;BME280;5558;42.702;23.178;2022-10-30T08:00:31;94360.91;;;13.86;100.00
11011;BME280;5558;42.702;23.178;2022-10-30T08:02:58;94359.84;;;13.97;97.73
11011;BME280;5558;42.702;23.178;2022-10-30T08:05:26;94348.66;;;14.05;98.12
11011;BME280;5558;42.702;23.178;2022-10-30T08:07:53;94354.78;;;14.25;97.19
11011;BME280;5558;42.702;23.178;2022-10-30T08:10:19;94347.84;;;14.29;95.71
11011;BME280;5558;42.702;23.178;2022-10-30T08:12:46;94344.34;;;14.49;96.05
11011;BME280;5558;42.702;23.178;2022-10-30T08:15:13;94340.31;;;14.56;95.48
11011;BME280;5558;42.702;23.178;2022-10-30T08:17:40;94344.78;;;14.76;92.29
11011;BME280;5558;42.702;23.178;2022-10-30T08:20:09;94344.00;;;14.65;94.65
11011;BME280;5558;42.702;23.178;2022-10-30T08:22:44;94349.84;;;14.73;91.72
11011;BME280;5558;42.702;23.178;2022-10-30T08:25:11;94349.84;;;14.78;92.75
11011;BME280;5558;42.702;23.178;2022-10-30T08:27:38;94342.44;;;14.54;93.86
11011;BME280;5558;42.702;23.178;2022-10-30T08:30:06;94348.50;;;14.70;93.04
11011;BME280;5558;42.702;23.178;2022-10-30T08:32:33;94354.63;;;14.76;93.58
11011;BME280;5558;42.702;23.178;2022-10-30T08:34:59;94349.50;;;14.89;89.69
11011;BME280;5558;42.702;23.178;2022-10-30T08:37:26;94353.31;;;14.68;90.68
11011;BME280;5558;42.702;23.178;2022-10-30T08:39:54;94351.28;;;14.40;91.63
11011;BME280;5558;42.702;23.178;2022-10-30T08:42:21;94349.13;;;14.47;90.96
11011;BME280;5558;42.702;23.178;2022-10-30T08:44:47;94349.41;;;14.45;90.89
11011;BME280;5558;42.702;23.178;2022-10-30T08:47:15;94351.84;;;14.27;91.92
11011;BME280;5558;42.702;23.178;2022-10-30T08:49:41;94350.19;;;14.41;93.03
11011;BME280;5558;42.702;23.178;2022-10-30T08:52:08;94343.56;;;14.38;93.23
11011;BME280;5558;42.702;23.178;2022-10-30T08:54:35;94352.00;;;14.65;91.44
11011;BME280;5558;42.702;23.178;2022-10-30T08:57:03;94357.56;;;14.74;89.86
11011;BME280;5558;42.702;23.178;2022-10-30T08:59:30;94358.09;;;14.81;88.38
11011;BME280;5558;42.702;23.178;2022-10-30T09:01:56;94347.66;;;14.85;88.36
11011;BME280;5558;42.702;23.178;2022-10-30T09:04:23;94335.69;;;14.77;87.97
11011;BME280;5558;42.702;23.178;2022-10-30T09:06:50;94334.03;;;14.91;87.95
11011;BME280;5558;42.702;23.178;2022-10-30T09:09:16;94334.63;;;14.83;87.63
11011;BME280;5558;42.702;23.178;2022-10-30T09:11:43;94339.13;;;14.88;88.25
11011;BME280;5558;42.702;23.178;2022-10-30T09:14:11;94335.34;;;14.94;87.63
11011;BME280;5558;42.702;23.178;2022-10-30T09:16:38;94332.09;;;15.07;87.68
11011;BME280;5558;42.702;23.178;2022-10-30T09:19:05;94330.69;;;15.19;86.33
11011;BME280;5558;42.702;23.178;2022-10-30T09:21:31;94332.09;;;15.07;85.87
11011;BME280;5558;42.702;23.178;2022-10-30T09:23:58;94324.88;;;15.07;86.36
11011;BME280;5558;42.702;23.178;2022-10-30T09:26:25;94334.94;;;15.25;84.58
11011;BME280;5558;42.702;23.178;2022-10-30T09:28:51;94337.25;;;15.37;84.13
11011;BME280;5558;42.702;23.178;2022-10-30T09:31:19;94330.22;;;15.51;83.97
11011;BME280;5558;42.702;23.178;2022-10-30T09:33:46;94330.28;;;15.79;82.17
11011;BME280;5558;42.702;23.178;2022-10-30T09:36:13;94325.59;;;15.95;81.15
11011;BME280;5558;42.702;23.178;2022-10-30T09:38:39;94312.44;;;16.04;79.10
11011;BME280;5558;42.702;23.178;2022-10-30T09:41:20;94310.41;;;16.19;78.07
11011;BME280;5558;42.702;23.178;2022-10-30T09:44:05;94312.31;;;16.42;76.28
11011;BME280;5558;42.702;23.178;2022-10-30T09:46:51;94301.31;;;16.49;73.86
11011;BME280;5558;42.702;23.178;2022-10-30T09:49:33;94297.72;;;16.58;71.66
11011;BME280;5558;42.702;23.178;2022-10-30T09:52:10;94299.88;;;16.80;71.18
11011;BME280;5558;42.702;23.178;2022-10-30T09:54:52;94306.03;;;16.80;71.32
11011;BME280;5558;42.702;23.178;2022-10-30T09:57:27;94301.66;;;16.84;66.73
11011;BME280;5558;42.702;23.178;2022-10-30T10:00:02;94295.50;;;17.08;67.00
11011;BME280;5558;42.702;23.178;2022-10-30T10:02:34;94298.03;;;17.18;67.55
11011;BME280;5558;42.702;23.178;2022-10-30T10:05:13;94284.66;;;17.18;67.66
11011;BME280;5558;42.702;23.178;2022-10-30T10:07:44;94286.00;;;17.34;66.13
11011;BME280;5558;42.702;23.178;2022-10-30T10:10:17;94278.88;;;17.48;65.66
11011;BME280;5558;42.702;23.178;2022-10-30T10:12:49;94242.25;;;17.43;62.68
11011;BME280;5558;42.702;23.178;2022-10-30T10:15:22;94267.19;;;17.57;61.91
11011;BME280;5558;42.702;23.178;2022-10-30T10:17:55;94264.66;;;17.66;61.71
11011;BME280;5558;42.702;23.178;2022-10-30T10:20:29;94263.13;;;17.78;62.00
11011;BME280;5558;42.702;23.178;2022-10-30T10:22:58;94266.38;;;17.75;60.20
11011;BME280;5558;42.702;23.178;2022-10-30T10:25:27;94258.97;;;17.86;60.14
11011;BME280;5558;42.702;23.178;2022-10-30T10:28:05;94262.06;;;17.93;60.51
11011;BME280;5558;42.702;23.178;2022-10-30T10:30:41;94261.28;;;17.92;59.62
11011;BME280;5558;42.702;23.178;2022-10-30T10:33:51;94249.97;;;18.09;58.55
11011;BME280;5558;42.702;23.178;2022-10-30T10:36:27;94248.50;;;18.16;57.47
11011;BME280;5558;42.702;23.178;2022-10-30T10:39:06;94241.47;;;18.20;57.39
11011;BME280;5558;42.702;23.178;2022-10-30T10:41:53;94237.44;;;18.50;57.67
11011;BME280;5558;42.702;23.178;2022-10-30T10:44:34;94238.69;;;18.66;57.44
11011;BME280;5558;42.702;23.178;2022-10-30T10:47:17;94231.88;;;18.60;57.90
11011;BME280;5558;42.702;23.178;2022-10-30T10:49:58;94228.19;;;18.56;56.45
11011;BME280;5558;42.702;23.178;2022-10-30T10:52:35;94226.28;;;18.70;56.44
11011;BME280;5558;42.702;23.178;2022-10-30T10:55:06;94219.41;;;18.78;55.61
11011;BME280;5558;42.702;23.178;2022-10-30T10:57:37;94220.50;;;18.90;55.72
11011;BME280;5558;42.702;23.178;2022-10-30T11:00:06;94210.44;;;18.96;54.80
11011;BME280;5558;42.702;23.178;2022-10-30T11:02:37;94210.88;;;19.11;53.49
11011;BME280;5558;42.702;23.178;2022-10-30T11:05:15;94209.38;;;19.19;52.85
11011;BME280;5558;42.702;23.178;2022-10-30T11:07:46;94203.06;;;19.23;51.18
11011;BME280;5558;42.702;23.178;2022-10-30T11:10:16;94193.56;;;19.31;50.08
11011;BME280;5558;42.702;23.178;2022-10-30T11:12:43;94191.81;;;19.35;50.48
11011;BME280;5558;42.702;23.178;2022-10-30T11:15:44;94195.38;;;19.44;51.86
11011;BME280;5558;42.702;23.178;2022-10-30T11:18:11;94189.50;;;19.42;50.94
11011;BME280;5558;42.702;23.178;2022-10-30T11:20:45;94190.44;;;19.37;50.62
11011;BME280;5558;42.702;23.178;2022-10-30T11:23:34;94191.75;;;19.49;49.44
11011;BME280;5558;42.702;23.178;2022-10-30T11:26:03;94179.19;;;19.58;49.46
11011;BME280;5558;42.702;23.178;2022-10-30T11:28:38;94182.84;;;19.62;49.07
11011;BME280;5558;42.702;23.178;2022-10-30T11:31:20;94165.31;;;19.64;47.88
11011;BME280;5558;42.702;23.178;2022-10-30T11:33:48;94165.41;;;19.81;47.51
11011;BME280;5558;42.702;23.178;2022-10-30T11:36:20;94175.09;;;19.91;47.54
11011;BME280;5558;42.702;23.178;2022-10-30T11:38:48;94176.09;;;20.03;47.12
11011;BME280;5558;42.702;23.178;2022-10-30T11:41:15;94165.41;;;20.12;46.68
11011;BME280;5558;42.702;23.178;2022-10-30T11:43:43;94167.41;;;20.06;46.27
11011;BME280;5558;42.702;23.178;2022-10-30T11:46:14;94165.53;;;20.07;46.76
11011;BME280;5558;42.702;23.178;2022-10-30T11:48:46;94162.59;;;20.17;46.35
11011;BME280;5558;42.702;23.178;2022-10-30T11:51:29;94168.97;;;20.38;47.59
11011;BME280;5558;42.702;23.178;2022-10-30T11:53:57;94157.91;;;20.31;45.92
11011;BME280;5558;42.702;23.178;2022-10-30T11:56:24;94159.19;;;20.42;45.32
11011;BME280;5558;42.702;23.178;2022-10-30T11:58:52;94153.16;;;20.36;44.55
11011;BME280;5558;42.702;23.178;2022-10-30T12:01:21;94157.75;;;20.36;42.89
11011;BME280;5558;42.702;23.178;2022-10-30T12:03:49;94153.31;;;20.40;42.27
11011;BME280;5558;42.702;23.178;2022-10-30T12:06:18;94128.00;;;20.24;41.69
11011;BME280;5558;42.702;23.178;2022-10-30T12:09:09;94157.16;;;20.47;41.72
11011;BME280;5558;42.702;23.178;2022-10-30T12:11:37;94139.91;;;20.48;42.42
11011;BME280;5558;42.702;23.178;2022-10-30T12:14:15;94137.06;;;20.62;42.10
11011;BME280;5558;42.702;23.178;2022-10-30T12:16:44;94138.38;;;20.73;41.42
11011;BME280;5558;42.702;23.178;2022-10-30T12:19:12;94141.22;;;20.77;41.36
11011;BME280;5558;42.702;23.178;2022-10-30T12:21:43;94136.28;;;20.70;41.23
11011;BME280;5558;42.702;23.178;2022-10-30T12:24:16;94128.53;;;20.69;41.96
11011;BME280;5558;42.702;23.178;2022-10-30T12:26:46;94131.06;;;20.82;41.74
11011;BME280;5558;42.702;23.178;2022-10-30T12:29:16;94126.34;;;20.88;42.18
11011;BME280;5558;42.702;23.178;2022-10-30T12:31:49;94117.13;;;20.97;42.24
11011;BME280;5558;42.702;23.178;2022-10-30T12:34:28;94117.81;;;21.03;41.93
11011;BME280;5558;42.702;23.178;2022-10-30T12:37:02;94113.72;;;21.05;41.54
11011;BME280;5558;42.702;23.178;2022-10-30T12:39:43;94122.88;;;21.21;41.28
11011;BME280;5558;42.702;23.178;2022-10-30T12:42:14;94115.28;;;21.15;41.05
11011;BME280;5558;42.702;23.178;2022-10-30T12:44:43;94116.66;;;21.38;41.73
11011;BME280;5558;42.702;23.178;2022-10-30T12:47:17;94101.81;;;21.23;41.05
11011;BME280;5558;42.702;23.178;2022-10-30T12:49:49;94114.13;;;21.41;40.42
11011;BME280;5558;42.702;23.178;2022-10-30T12:52:20;94112.84;;;21.47;40.10
11011;BME280;5558;42.702;23.178;2022-10-30T12:54:50;94105.06;;;21.63;38.85
11011;BME280;5558;42.702;23.178;2022-10-30T12:57:24;94102.47;;;21.66;38.99
11011;BME280;5558;42.702;23.178;2022-10-30T13:00:00;94113.09;;;21.71;38.12
11011;BME280;5558;42.702;23.178;2022-10-30T13:02:38;94108.13;;;21.91;38.00
11011;BME280;5558;42.702;23.178;2022-10-30T13:05:25;94097.50;;;21.94;37.58
11011;BME280;5558;42.702;23.178;2022-10-30T13:08:08;94099.22;;;21.99;37.79
11011;BME280;5558;42.702;23.178;2022-10-30T13:10:40;94093.16;;;22.10;37.46
11011;BME280;5558;42.702;23.178;2022-10-30T13:13:13;94091.56;;;22.09;38.27